sensor_id;sensor_type;location;lat;lon;timestamp;P1;durP1;ratioP1;P2;durP2;ratioP2
65799;SDS011;52544;48.116;11.660;2023-01-20T00:01:08;19.70;;;7.20;;
65799;SDS011;52544;48.116;11.660;2023-01-20T00:03:34;15.50;;;7.07;;
65799;SDS011;52544;48.116;11.660;2023-01-20T00:06:00;21.67;;;7.22;;
65799;SDS011;52544;48.116;11.660;2023-01-20T00:08:26;15.20;;;7.25;;
65799;SDS011;52544;48.116;11.660;2023-01-20T00:10:52;22.88;;;7.80;;
65799;SDS011;52544;48.116;11.660;2023-01-20T00:13:17;16.27;;;7.95;;
65799;SDS011;52544;48.116;11.660;2023-01-20T00:15:42;13.73;;;6.80;;
65799;SDS011;52544;48.116;11.660;2023-01-20T00:18:08;15.48;;;6.95;;
65799;SDS011;52544;48.116;11.660;2023-01-20T00:20:33;12.50;;;6.47;;
65799;SDS011;52544;48.116;11.660;2023-01-20T00:22:59;15.02;;;6.07;;
65799;SDS011;52544;48.116;11.660;2023-01-20T00:25:24;10.45;;;4.85;;
65799;SDS011;52544;48.116;11.660;2023-01-20T00:27:50;14.70;;;5.85;;
65799;SDS011;52544;48.116;11.660;2023-01-20T00:30:17;13.23;;;5.75;;
65799;SDS011;52544;48.116;11.660;2023-01-20T00:32:43;12.48;;;5.25;;
65799;SDS011;52544;48.116;11.660;2023-01-20T00:35:09;11.60;;;5.32;;
65799;SDS011;52544;48.116;11.660;2023-01-20T00:37:36;11.93;;;5.38;;
65799;SDS011;52544;48.116;11.660;2023-01-20T00:40:02;12.98;;;5.57;;
65799;SDS011;52544;48.116;11.660;2023-01-20T00:42:29;11.90;;;5.25;;
65799;SDS011;52544;48.116;11.660;2023-01-20T00:44:54;9.32;;;5.18;;
65799;SDS011;52544;48.116;11.660;2023-01-20T00:47:20;10.38;;;4.80;;
65799;SDS011;52544;48.116;11.660;2023-01-20T00:49:46;13.50;;;5.65;;
65799;SDS011;52544;48.116;11.660;2023-01-20T00:52:12;9.90;;;5.38;;
65799;SDS011;52544;48.116;11.660;2023-01-20T00:54:37;13.88;;;5.57;;
65799;SDS011;52544;48.116;11.660;2023-01-20T00:57:03;11.23;;;4.80;;
65799;SDS011;52544;48.116;11.660;2023-01-20T00:59:28;11.82;;;5.47;;
65799;SDS011;52544;48.116;11.660;2023-01-20T01:01:54;13.90;;;5.00;;
65799;SDS011;52544;48.116;11.660;2023-01-20T01:04:19;11.48;;;5.07;;
65799;SDS011;52544;48.116;11.660;2023-01-20T01:06:44;11.30;;;5.75;;
65799;SDS011;52544;48.116;11.660;2023-01-20T01:09:10;11.77;;;5.65;;
65799;SDS011;52544;48.116;11.660;2023-01-20T01:11:35;10.27;;;5.03;;
65799;SDS011;52544;48.116;11.660;2023-01-20T01:14:01;11.20;;;4.80;;
65799;SDS011;52544;48.116;11.660;2023-01-20T01:16:26;12.20;;;5.05;;
65799;SDS011;52544;48.116;11.660;2023-01-20T01:18:52;8.65;;;4.72;;
65799;SDS011;52544;48.116;11.660;2023-01-20T01:21:19;11.05;;;4.57;;
65799;SDS011;52544;48.116;11.660;2023-01-20T01:23:45;11.57;;;4.70;;
65799;SDS011;52544;48.116;11.660;2023-01-20T01:26:10;8.57;;;4.72;;
65799;SDS011;52544;48.116;11.660;2023-01-20T01:28:36;9.68;;;4.63;;
65799;SDS011;52544;48.116;11.660;2023-01-20T01:31:02;7.93;;;4.25;;
65799;SDS011;52544;48.116;11.660;2023-01-20T01:33:29;10.07;;;4.40;;
65799;SDS011;52544;48.116;11.660;2023-01-20T01:35:55;9.10;;;5.10;;
65799;SDS011;52544;48.116;11.660;2023-01-20T01:38:21;8.90;;;4.68;;
65799;SDS011;52544;48.116;11.660;2023-01-20T01:40:48;11.25;;;4.72;;
65799;SDS011;52544;48.116;11.660;2023-01-20T01:43:19;8.48;;;4.57;;
65799;SDS011;52544;48.116;11.660;2023-01-20T01:45:48;10.00;;;4.85;;
65799;SDS011;52544;48.116;11.660;2023-01-20T01:48:13;8.32;;;4.45;;
65799;SDS011;52544;48.116;11.660;2023-01-20T01:50:49;12.43;;;5.22;;
65799;SDS011;52544;48.116;11.660;2023-01-20T01:53:38;9.13;;;4.57;;
65799;SDS011;52544;48.116;11.660;2023-01-20T01:56:09;10.80;;;4.53;;
65799;SDS011;52544;48.116;11.660;2023-01-20T01:58:36;11.35;;;4.70;;
65799;SDS011;52544;48.116;11.660;2023-01-20T02:01:05;9.38;;;4.32;;
65799;SDS011;52544;48.116;11.660;2023-01-20T02:03:34;9.27;;;4.40;;
65799;SDS011;52544;48.116;11.660;2023-01-20T02:06:08;8.55;;;4.45;;
65799;SDS011;52544;48.116;11.660;2023-01-20T02:08:35;9.27;;;4.70;;
65799;SDS011;52544;48.116;11.660;2023-01-20T02:11:01;9.02;;;5.13;;
65799;SDS011;52544;48.116;11.660;2023-01-20T02:13:26;9.00;;;4.13;;
65799;SDS011;52544;48.116;11.660;2023-01-20T02:15:56;14.90;;;4.60;;
65799;SDS011;52544;48.116;11.660;2023-01-20T02:21:25;7.90;;;4.25;;
65799;SDS011;52544;48.116;11.660;2023-01-20T02:35:39;8.13;;;4.60;;
65799;SDS011;52544;48.116;11.660;2023-01-20T02:38:14;8.80;;;4.88;;
65799;SDS011;52544;48.116;11.660;2023-01-20T02:40:55;9.68;;;4.53;;
65799;SDS011;52544;48.116;11.660;2023-01-20T02:46:25;11.82;;;4.47;;
65799;SDS011;52544;48.116;11.660;2023-01-20T02:49:04;7.13;;;4.15;;
65799;SDS011;52544;48.116;11.660;2023-01-20T02:52:09;11.35;;;4.97;;
65799;SDS011;52544;48.116;11.660;2023-01-20T02:54:37;8.43;;;4.55;;
65799;SDS011;52544;48.116;11.660;2023-01-20T02:57:07;9.35;;;4.65;;
65799;SDS011;52544;48.116;11.660;2023-01-20T02:59:36;11.10;;;4.72;;
65799;SDS011;52544;48.116;11.660;2023-01-20T03:02:27;8.00;;;4.22;;
65799;SDS011;52544;48.116;11.660;2023-01-20T03:04:55;7.97;;;4.43;;
65799;SDS011;52544;48.116;11.660;2023-01-20T03:07:26;7.63;;;4.20;;
65799;SDS011;52544;48.116;11.660;2023-01-20T03:09:54;6.30;;;4.40;;
65799;SDS011;52544;48.116;11.660;2023-01-20T03:14:53;12.63;;;4.90;;
65799;SDS011;52544;48.116;11.660;2023-01-20T03:17:19;8.80;;;4.82;;
65799;SDS011;52544;48.116;11.660;2023-01-20T03:19:45;12.38;;;4.38;;
65799;SDS011;52544;48.116;11.660;2023-01-20T03:22:10;10.30;;;4.38;;
65799;SDS011;52544;48.116;11.660;2023-01-20T03:24:36;13.13;;;4.88;;
65799;SDS011;52544;48.116;11.660;2023-01-20T03:27:03;8.05;;;4.25;;
65799;SDS011;52544;48.116;11.660;2023-01-20T03:29:29;9.23;;;4.30;;
65799;SDS011;52544;48.116;11.660;2023-01-20T03:31:58;9.48;;;4.55;;
65799;SDS011;52544;48.116;11.660;2023-01-20T03:34:25;9.35;;;4.05;;
65799;SDS011;52544;48.116;11.660;2023-01-20T03:36:53;11.77;;;4.78;;
65799;SDS011;52544;48.116;11.660;2023-01-20T03:39:19;9.63;;;4.88;;
65799;SDS011;52544;48.116;11.660;2023-01-20T03:41:52;11.88;;;5.03;;
65799;SDS011;52544;48.116;11.660;2023-01-20T03:52:40;8.30;;;4.80;;
65799;SDS011;52544;48.116;11.660;2023-01-20T03:55:14;10.00;;;4.88;;
65799;SDS011;52544;48.116;11.660;2023-01-20T03:57:49;9.25;;;4.53;;
65799;SDS011;52544;48.116;11.660;2023-01-20T04:00:19;9.00;;;4.75;;
65799;SDS011;52544;48.116;11.660;2023-01-20T04:02:46;9.40;;;4.68;;
65799;SDS011;52544;48.116;11.660;2023-01-20T04:05:13;10.68;;;4.88;;
65799;SDS011;52544;48.116;11.660;2023-01-20T04:07:40;9.63;;;4.55;;
65799;SDS011;52544;48.116;11.660;2023-01-20T04:10:09;9.85;;;4.22;;
65799;SDS011;52544;48.116;11.660;2023-01-20T04:12:38;11.77;;;4.82;;
65799;SDS011;52544;48.116;11.660;2023-01-20T04:15:04;9.95;;;4.75;;
65799;SDS011;52544;48.116;11.660;2023-01-20T04:17:31;10.52;;;4.43;;
65799;SDS011;52544;48.116;11.660;2023-01-20T04:19:58;11.02;;;4.50;;
65799;SDS011;52544;48.116;11.660;2023-01-20T04:22:49;8.73;;;4.40;;
65799;SDS011;52544;48.116;11.660;2023-01-20T04:25:23;8.25;;;4.10;;
65799;SDS011;52544;48.116;11.660;2023-01-20T04:27:51;9.15;;;4.70;;
65799;SDS011;52544;48.116;11.660;2023-01-20T04:30:16;8.63;;;4.22;;
65799;SDS011;52544;48.116;11.660;2023-01-20T04:32:42;7.93;;;3.95;;
65799;SDS011;52544;48.116;11.660;2023-01-20T04:35:09;8.75;;;4.00;;
65799;SDS011;52544;48.116;11.660;2023-01-20T04:37:37;10.05;;;4.38;;
65799;SDS011;52544;48.116;11.660;2023-01-20T04:40:02;6.80;;;3.58;;
65799;SDS011;52544;48.116;11.660;2023-01-20T04:42:28;7.68;;;4.30;;
65799;SDS011;52544;48.116;11.660;2023-01-20T04:44:53;8.60;;;4.13;;
65799;SDS011;52544;48.116;11.660;2023-01-20T04:47:19;6.95;;;3.60;;
65799;SDS011;52544;48.116;11.660;2023-01-20T04:49:44;9.82;;;4.95;;
65799;SDS011;52544;48.116;11.660;2023-01-20T04:52:10;10.98;;;4.32;;
65799;SDS011;52544;48.116;11.660;2023-01-20T04:54:35;8.30;;;4.20;;
65799;SDS011;52544;48.116;11.660;2023-01-20T04:57:00;8.27;;;3.92;;
65799;SDS011;52544;48.116;11.660;2023-01-20T04:59:26;8.27;;;5.10;;
65799;SDS011;52544;48.116;11.660;2023-01-20T05:01:51;12.48;;;6.00;;
65799;SDS011;52544;48.116;11.660;2023-01-20T05:04:17;10.60;;;4.82;;
65799;SDS011;52544;48.116;11.660;2023-01-20T05:06:42;11.25;;;5.18;;
65799;SDS011;52544;48.116;11.660;2023-01-20T05:09:12;11.23;;;5.28;;
65799;SDS011;52544;48.116;11.660;2023-01-20T05:11:39;9.10;;;5.00;;
65799;SDS011;52544;48.116;11.660;2023-01-20T05:14:05;10.10;;;5.53;;
65799;SDS011;52544;48.116;11.660;2023-01-20T05:16:31;10.38;;;5.75;;
65799;SDS011;52544;48.116;11.660;2023-01-20T05:18:58;10.48;;;5.57;;
65799;SDS011;52544;48.116;11.660;2023-01-20T05:21:24;11.60;;;5.65;;
65799;SDS011;52544;48.116;11.660;2023-01-20T05:23:52;15.25;;;7.63;;
65799;SDS011;52544;48.116;11.660;2023-01-20T05:26:18;16.75;;;7.00;;
65799;SDS011;52544;48.116;11.660;2023-01-20T05:28:44;15.00;;;6.75;;
65799;SDS011;52544;48.116;11.660;2023-01-20T05:31:10;14.18;;;6.45;;
65799;SDS011;52544;48.116;11.660;2023-01-20T05:33:36;15.48;;;7.15;;
65799;SDS011;52544;48.116;11.660;2023-01-20T05:36:07;20.25;;;8.20;;
65799;SDS011;52544;48.116;11.660;2023-01-20T05:38:33;15.98;;;7.93;;
65799;SDS011;52544;48.116;11.660;2023-01-20T05:41:02;15.35;;;7.80;;
65799;SDS011;52544;48.116;11.660;2023-01-20T05:43:29;16.73;;;8.45;;
65799;SDS011;52544;48.116;11.660;2023-01-20T05:45:55;18.90;;;8.65;;
65799;SDS011;52544;48.116;11.660;2023-01-20T05:48:20;17.60;;;8.25;;
65799;SDS011;52544;48.116;11.660;2023-01-20T05:50:46;16.80;;;8.30;;
65799;SDS011;52544;48.116;11.660;2023-01-20T05:53:12;17.35;;;8.35;;
65799;SDS011;52544;48.116;11.660;2023-01-20T05:55:38;17.05;;;8.82;;
65799;SDS011;52544;48.116;11.660;2023-01-20T05:58:04;18.23;;;9.18;;
65799;SDS011;52544;48.116;11.660;2023-01-20T06:00:29;21.58;;;9.35;;
65799;SDS011;52544;48.116;11.660;2023-01-20T06:02:55;17.55;;;9.25;;
65799;SDS011;52544;48.116;11.660;2023-01-20T06:05:20;20.20;;;10.35;;
65799;SDS011;52544;48.116;11.660;2023-01-20T06:07:46;19.52;;;10.18;;
65799;SDS011;52544;48.116;11.660;2023-01-20T06:10:13;21.50;;;10.68;;
65799;SDS011;52544;48.116;11.660;2023-01-20T06:12:39;21.63;;;10.07;;
65799;SDS011;52544;48.116;11.660;2023-01-20T06:15:05;30.42;;;10.10;;
65799;SDS011;52544;48.116;11.660;2023-01-20T06:17:31;30.10;;;14.65;;
65799;SDS011;52544;48.116;11.660;2023-01-20T06:19:56;20.25;;;9.52;;
65799;SDS011;52544;48.116;11.660;2023-01-20T06:22:22;25.45;;;9.60;;
65799;SDS011;52544;48.116;11.660;2023-01-20T06:24:47;22.15;;;10.60;;
65799;SDS011;52544;48.116;11.660;2023-01-20T06:27:13;20.17;;;9.57;;
65799;SDS011;52544;48.116;11.660;2023-01-20T06:29:38;20.52;;;10.38;;
65799;SDS011;52544;48.116;11.660;2023-01-20T06:32:04;18.52;;;8.27;;
65799;SDS011;52544;48.116;11.660;2023-01-20T06:34:29;16.67;;;8.05;;
65799;SDS011;52544;48.116;11.660;2023-01-20T06:36:55;18.67;;;9.27;;
65799;SDS011;52544;48.116;11.660;2023-01-20T06:39:21;16.48;;;8.07;;
65799;SDS011;52544;48.116;11.660;2023-01-20T06:41:46;15.57;;;7.80;;
65799;SDS011;52544;48.116;11.660;2023-01-20T06:44:12;14.10;;;7.10;;
65799;SDS011;52544;48.116;11.660;2023-01-20T06:46:37;16.27;;;7.65;;
65799;SDS011;52544;48.116;11.660;2023-01-20T06:49:02;17.25;;;7.57;;
65799;SDS011;52544;48.116;11.660;2023-01-20T06:51:28;12.77;;;6.97;;
65799;SDS011;52544;48.116;11.660;2023-01-20T06:53:55;13.13;;;6.20;;
65799;SDS011;52544;48.116;11.660;2023-01-20T06:56:21;13.98;;;6.85;;
65799;SDS011;52544;48.116;11.660;2023-01-20T06:58:47;17.73;;;6.28;;
65799;SDS011;52544;48.116;11.660;2023-01-20T07:01:22;17.30;;;5.93;;
65799;SDS011;52544;48.116;11.660;2023-01-20T07:03:49;13.98;;;6.75;;
65799;SDS011;52544;48.116;11.660;2023-01-20T07:06:16;12.77;;;6.25;;
65799;SDS011;52544;48.116;11.660;2023-01-20T07:08:44;13.77;;;6.03;;
65799;SDS011;52544;48.116;11.660;2023-01-20T07:11:10;9.70;;;5.32;;
65799;SDS011;52544;48.116;11.660;2023-01-20T07:13:36;10.68;;;5.30;;
65799;SDS011;52544;48.116;11.660;2023-01-20T07:16:01;13.90;;;6.35;;
65799;SDS011;52544;48.116;11.660;2023-01-20T07:18:27;9.23;;;5.30;;
65799;SDS011;52544;48.116;11.660;2023-01-20T07:20:53;10.95;;;5.90;;
65799;SDS011;52544;48.116;11.660;2023-01-20T07:23:19;12.15;;;5.75;;
65799;SDS011;52544;48.116;11.660;2023-01-20T07:25:44;13.18;;;6.47;;
65799;SDS011;52544;48.116;11.660;2023-01-20T07:28:10;17.63;;;8.55;;
65799;SDS011;52544;48.116;11.660;2023-01-20T07:30:50;15.57;;;7.57;;
65799;SDS011;52544;48.116;11.660;2023-01-20T07:33:15;14.85;;;6.65;;
65799;SDS011;52544;48.116;11.660;2023-01-20T07:35:41;19.05;;;7.45;;
65799;SDS011;52544;48.116;11.660;2023-01-20T07:38:06;15.30;;;6.63;;
65799;SDS011;52544;48.116;11.660;2023-01-20T07:40:32;12.80;;;6.78;;
65799;SDS011;52544;48.116;11.660;2023-01-20T07:42:57;13.75;;;6.70;;
65799;SDS011;52544;48.116;11.660;2023-01-20T07:45:22;13.07;;;6.53;;
65799;SDS011;52544;48.116;11.660;2023-01-20T07:47:48;14.75;;;8.02;;
65799;SDS011;52544;48.116;11.660;2023-01-20T07:50:13;19.00;;;8.02;;
65799;SDS011;52544;48.116;11.660;2023-01-20T07:52:39;12.23;;;6.30;;
65799;SDS011;52544;48.116;11.660;2023-01-20T07:55:05;12.55;;;6.57;;
65799;SDS011;52544;48.116;11.660;2023-01-20T07:57:30;14.23;;;6.28;;
65799;SDS011;52544;48.116;11.660;2023-01-20T07:59:56;13.85;;;7.32;;
65799;SDS011;52544;48.116;11.660;2023-01-20T08:02:21;13.40;;;7.68;;
65799;SDS011;52544;48.116;11.660;2023-01-20T08:04:46;15.82;;;7.32;;
65799;SDS011;52544;48.116;11.660;2023-01-20T08:07:12;14.10;;;6.85;;
65799;SDS011;52544;48.116;11.660;2023-01-20T08:09:37;17.00;;;7.50;;
65799;SDS011;52544;48.116;11.660;2023-01-20T08:12:04;19.60;;;9.70;;
65799;SDS011;52544;48.116;11.660;2023-01-20T08:14:30;26.58;;;12.80;;
65799;SDS011;52544;48.116;11.660;2023-01-20T08:16:55;14.68;;;6.90;;
65799;SDS011;52544;48.116;11.660;2023-01-20T08:19:21;15.02;;;8.10;;
65799;SDS011;52544;48.116;11.660;2023-01-20T08:21:46;14.90;;;7.60;;
65799;SDS011;52544;48.116;11.660;2023-01-20T08:24:11;16.00;;;7.78;;
65799;SDS011;52544;48.116;11.660;2023-01-20T08:26:37;16.15;;;7.75;;
65799;SDS011;52544;48.116;11.660;2023-01-20T08:29:03;15.85;;;7.97;;
65799;SDS011;52544;48.116;11.660;2023-01-20T08:31:30;13.57;;;7.25;;
65799;SDS011;52544;48.116;11.660;2023-01-20T08:33:56;11.35;;;6.53;;
65799;SDS011;52544;48.116;11.660;2023-01-20T08:36:24;15.05;;;7.38;;
65799;SDS011;52544;48.116;11.660;2023-01-20T08:38:55;18.88;;;9.13;;
65799;SDS011;52544;48.116;11.660;2023-01-20T08:41:23;16.02;;;8.00;;
65799;SDS011;52544;48.116;11.660;2023-01-20T08:43:52;17.17;;;8.48;;
65799;SDS011;52544;48.116;11.660;2023-01-20T08:46:18;17.88;;;8.25;;
65799;SDS011;52544;48.116;11.660;2023-01-20T08:48:45;16.38;;;7.65;;
65799;SDS011;52544;48.116;11.660;2023-01-20T08:51:13;18.05;;;7.55;;
65799;SDS011;52544;48.116;11.660;2023-01-20T08:53:49;15.20;;;7.25;;
65799;SDS011;52544;48.116;11.660;2023-01-20T08:56:15;14.50;;;7.45;;
65799;SDS011;52544;48.116;11.660;2023-01-20T08:58:42;15.45;;;7.85;;
65799;SDS011;52544;48.116;11.660;2023-01-20T09:01:12;15.50;;;7.22;;
65799;SDS011;52544;48.116;11.660;2023-01-20T09:03:49;15.68;;;7.05;;
65799;SDS011;52544;48.116;11.660;2023-01-20T09:06:15;15.95;;;7.50;;
65799;SDS011;52544;48.116;11.660;2023-01-20T09:08:40;16.30;;;7.38;;
65799;SDS011;52544;48.116;11.660;2023-01-20T09:13:33;16.02;;;7.15;;
65799;SDS011;52544;48.116;11.660;2023-01-20T09:15:58;16.40;;;7.45;;
65799;SDS011;52544;48.116;11.660;2023-01-20T09:18:24;11.60;;;6.40;;
65799;SDS011;52544;48.116;11.660;2023-01-20T09:20:49;16.50;;;7.70;;
65799;SDS011;52544;48.116;11.660;2023-01-20T09:23:15;14.68;;;6.60;;
65799;SDS011;52544;48.116;11.660;2023-01-20T09:25:40;13.50;;;6.68;;
65799;SDS011;52544;48.116;11.660;2023-01-20T09:28:05;14.70;;;7.15;;
65799;SDS011;52544;48.116;11.660;2023-01-20T09:30:31;13.10;;;6.15;;
65799;SDS011;52544;48.116;11.660;2023-01-20T09:32:56;13.75;;;6.55;;
65799;SDS011;52544;48.116;11.660;2023-01-20T09:35:22;13.77;;;7.22;;
65799;SDS011;52544;48.116;11.660;2023-01-20T09:37:47;13.25;;;6.72;;
65799;SDS011;52544;48.116;11.660;2023-01-20T09:40:37;12.93;;;6.38;;
65799;SDS011;52544;48.116;11.660;2023-01-20T09:43:32;13.55;;;6.80;;
65799;SDS011;52544;48.116;11.660;2023-01-20T09:52:17;14.43;;;5.78;;
65799;SDS011;52544;48.116;11.660;2023-01-20T09:55:18;12.68;;;5.93;;
65799;SDS011;52544;48.116;11.660;2023-01-20T09:57:55;11.02;;;5.82;;
65799;SDS011;52544;48.116;11.660;2023-01-20T10:00:29;8.45;;;4.32;;
65799;SDS011;52544;48.116;11.660;2023-01-20T10:03:02;9.35;;;4.68;;
65799;SDS011;52544;48.116;11.660;2023-01-20T10:05:36;11.40;;;4.57;;
65799;SDS011;52544;48.116;11.660;2023-01-20T10:08:06;17.17;;;7.22;;
65799;SDS011;52544;48.116;11.660;2023-01-20T10:10:59;12.48;;;5.22;;
65799;SDS011;52544;48.116;11.660;2023-01-20T10:13:38;9.48;;;4.10;;
65799;SDS011;52544;48.116;11.660;2023-01-20T10:16:11;10.07;;;4.68;;
65799;SDS011;52544;48.116;11.660;2023-01-20T10:18:46;9.32;;;4.75;;
65799;SDS011;52544;48.116;11.660;2023-01-20T10:21:36;10.15;;;5.40;;
65799;SDS011;52544;48.116;11.660;2023-01-20T10:24:09;10.75;;;4.60;;
65799;SDS011;52544;48.116;11.660;2023-01-20T10:29:35;9.60;;;4.80;;
65799;SDS011;52544;48.116;11.660;2023-01-20T10:34:46;9.25;;;4.78;;
65799;SDS011;52544;48.116;11.660;2023-01-20T10:37:14;7.07;;;3.85;;
65799;SDS011;52544;48.116;11.660;2023-01-20T10:39:51;11.70;;;5.20;;
65799;SDS011;52544;48.116;11.660;2023-01-20T10:42:21;10.13;;;4.70;;
65799;SDS011;52544;48.116;11.660;2023-01-20T10:44:48;11.20;;;5.18;;
65799;SDS011;52544;48.116;11.660;2023-01-20T10:57:55;9.60;;;5.20;;
65799;SDS011;52544;48.116;11.660;2023-01-20T11:00:27;8.77;;;4.45;;
65799;SDS011;52544;48.116;11.660;2023-01-20T11:02:58;9.23;;;4.22;;
65799;SDS011;52544;48.116;11.660;2023-01-20T11:05:30;8.93;;;5.03;;
65799;SDS011;52544;48.116;11.660;2023-01-20T11:08:02;6.40;;;3.63;;
65799;SDS011;52544;48.116;11.660;2023-01-20T11:10:34;9.13;;;3.85;;
65799;SDS011;52544;48.116;11.660;2023-01-20T11:13:00;9.52;;;3.33;;
65799;SDS011;52544;48.116;11.660;2023-01-20T11:15:31;8.75;;;3.80;;
65799;SDS011;52544;48.116;11.660;2023-01-20T11:28:52;10.30;;;4.72;;
65799;SDS011;52544;48.116;11.660;2023-01-20T11:31:20;9.90;;;4.70;;
65799;SDS011;52544;48.116;11.660;2023-01-20T11:33:59;8.48;;;4.30;;
65799;SDS011;52544;48.116;11.660;2023-01-20T11:36:43;9.00;;;4.00;;
65799;SDS011;52544;48.116;11.660;2023-01-20T11:39:22;10.35;;;4.85;;
65799;SDS011;52544;48.116;11.660;2023-01-20T11:42:08;6.32;;;3.70;;
65799;SDS011;52544;48.116;11.660;2023-01-20T11:44:46;6.95;;;4.13;;
65799;SDS011;52544;48.116;11.660;2023-01-20T11:47:33;7.70;;;3.92;;
65799;SDS011;52544;48.116;11.660;2023-01-20T11:52:28;5.70;;;3.05;;
65799;SDS011;52544;48.116;11.660;2023-01-20T11:57:42;4.72;;;2.92;;
65799;SDS011;52544;48.116;11.660;2023-01-20T12:00:26;5.63;;;3.50;;
65799;SDS011;52544;48.116;11.660;2023-01-20T12:02:55;6.82;;;3.63;;
65799;SDS011;52544;48.116;11.660;2023-01-20T12:05:25;13.18;;;4.68;;
65799;SDS011;52544;48.116;11.660;2023-01-20T12:08:03;11.07;;;5.28;;
65799;SDS011;52544;48.116;11.660;2023-01-20T12:10:38;9.32;;;4.57;;
65799;SDS011;52544;48.116;11.660;2023-01-20T12:13:06;8.07;;;4.30;;
65799;SDS011;52544;48.116;11.660;2023-01-20T12:15:42;7.70;;;4.15;;
65799;SDS011;52544;48.116;11.660;2023-01-20T12:21:04;6.47;;;3.33;;
65799;SDS011;52544;48.116;11.660;2023-01-20T12:26:13;6.15;;;3.50;;
65799;SDS011;52544;48.116;11.660;2023-01-20T12:31:16;8.13;;;4.13;;
65799;SDS011;52544;48.116;11.660;2023-01-20T12:33:48;7.80;;;4.65;;
65799;SDS011;52544;48.116;11.660;2023-01-20T12:39:14;10.18;;;5.45;;
65799;SDS011;52544;48.116;11.660;2023-01-20T12:48:03;9.55;;;4.45;;
65799;SDS011;52544;48.116;11.660;2023-01-20T12:55:48;9.70;;;4.90;;
65799;SDS011;52544;48.116;11.660;2023-01-20T12:58:39;12.05;;;5.60;;
65799;SDS011;52544;48.116;11.660;2023-01-20T13:01:41;11.80;;;5.50;;
65799;SDS011;52544;48.116;11.660;2023-01-20T13:04:34;14.23;;;6.50;;
65799;SDS011;52544;48.116;11.660;2023-01-20T13:07:56;11.30;;;6.22;;
65799;SDS011;52544;48.116;11.660;2023-01-20T13:13:03;19.92;;;6.80;;
65799;SDS011;52544;48.116;11.660;2023-01-20T13:15:42;11.90;;;6.32;;
65799;SDS011;52544;48.116;11.660;2023-01-20T13:18:18;16.90;;;6.88;;
65799;SDS011;52544;48.116;11.660;2023-01-20T13:20:48;13.77;;;7.63;;
65799;SDS011;52544;48.116;11.660;2023-01-20T13:23:21;15.80;;;8.45;;
65799;SDS011;52544;48.116;11.660;2023-01-20T13:25:51;17.27;;;8.68;;
65799;SDS011;52544;48.116;11.660;2023-01-20T13:28:21;16.73;;;9.02;;
65799;SDS011;52544;48.116;11.660;2023-01-20T13:30:49;17.30;;;8.57;;
65799;SDS011;52544;48.116;11.660;2023-01-20T13:36:18;18.60;;;8.98;;
65799;SDS011;52544;48.116;11.660;2023-01-20T13:38:49;17.50;;;9.10;;
65799;SDS011;52544;48.116;11.660;2023-01-20T13:41:56;19.35;;;9.73;;
65799;SDS011;52544;48.116;11.660;2023-01-20T13:44:37;24.33;;;9.73;;
65799;SDS011;52544;48.116;11.660;2023-01-20T13:47:06;19.75;;;9.98;;
65799;SDS011;52544;48.116;11.660;2023-01-20T13:49:51;19.30;;;10.23;;
65799;SDS011;52544;48.116;11.660;2023-01-20T13:57:54;20.15;;;10.45;;
65799;SDS011;52544;48.116;11.660;2023-01-20T14:00:20;22.58;;;9.80;;
65799;SDS011;52544;48.116;11.660;2023-01-20T14:02:46;19.92;;;10.45;;
65799;SDS011;52544;48.116;11.660;2023-01-20T14:05:24;18.10;;;9.73;;
65799;SDS011;52544;48.116;11.660;2023-01-20T14:07:51;21.42;;;10.48;;
65799;SDS011;52544;48.116;11.660;2023-01-20T14:10:17;20.17;;;10.70;;
65799;SDS011;52544;48.116;11.660;2023-01-20T14:12:43;21.50;;;10.40;;
65799;SDS011;52544;48.116;11.660;2023-01-20T14:15:21;21.02;;;10.40;;
65799;SDS011;52544;48.116;11.660;2023-01-20T14:17:52;21.10;;;10.55;;
65799;SDS011;52544;48.116;11.660;2023-01-20T14:20:22;24.30;;;11.07;;
65799;SDS011;52544;48.116;11.660;2023-01-20T14:22:49;20.50;;;9.80;;
65799;SDS011;52544;48.116;11.660;2023-01-20T14:25:22;25.60;;;11.70;;
65799;SDS011;52544;48.116;11.660;2023-01-20T14:27:50;22.17;;;11.00;;
65799;SDS011;52544;48.116;11.660;2023-01-20T14:30:20;21.70;;;10.98;;
65799;SDS011;52544;48.116;11.660;2023-01-20T14:32:46;23.38;;;10.73;;
65799;SDS011;52544;48.116;11.660;2023-01-20T14:35:13;22.23;;;10.63;;
65799;SDS011;52544;48.116;11.660;2023-01-20T14:37:48;20.45;;;10.95;;
65799;SDS011;52544;48.116;11.660;2023-01-20T14:40:20;21.95;;;10.65;;
65799;SDS011;52544;48.116;11.660;2023-01-20T14:45:24;20.35;;;10.63;;
65799;SDS011;52544;48.116;11.660;2023-01-20T14:47:52;23.05;;;10.40;;
65799;SDS011;52544;48.116;11.660;2023-01-20T14:50:18;23.52;;;10.90;;
65799;SDS011;52544;48.116;11.660;2023-01-20T14:52:45;23.92;;;10.55;;
65799;SDS011;52544;48.116;11.660;2023-01-20T14:57:56;26.00;;;12.05;;
65799;SDS011;52544;48.116;11.660;2023-01-20T15:00:22;24.77;;;11.02;;
65799;SDS011;52544;48.116;11.660;2023-01-20T15:10:43;22.65;;;10.90;;
65799;SDS011;52544;48.116;11.660;2023-01-20T15:13:20;25.40;;;12.15;;
65799;SDS011;52544;48.116;11.660;2023-01-20T15:15:47;26.65;;;11.38;;
65799;SDS011;52544;48.116;11.660;2023-01-20T15:18:14;23.48;;;11.38;;
65799;SDS011;52544;48.116;11.660;2023-01-20T15:20:48;24.33;;;12.10;;
65799;SDS011;52544;48.116;11.660;2023-01-20T15:23:31;23.63;;;11.25;;
65799;SDS011;52544;48.116;11.660;2023-01-20T15:28:55;22.10;;;11.35;;
65799;SDS011;52544;48.116;11.660;2023-01-20T15:31:22;24.08;;;11.32;;
65799;SDS011;52544;48.116;11.660;2023-01-20T15:33:48;26.73;;;13.00;;
65799;SDS011;52544;48.116;11.660;2023-01-20T15:36:21;26.13;;;11.95;;
65799;SDS011;52544;48.116;11.660;2023-01-20T15:38:48;26.20;;;12.05;;
65799;SDS011;52544;48.116;11.660;2023-01-20T15:41:14;25.85;;;11.70;;
65799;SDS011;52544;48.116;11.660;2023-01-20T15:43:40;26.00;;;11.93;;
65799;SDS011;52544;48.116;11.660;2023-01-20T15:46:10;26.70;;;11.95;;
65799;SDS011;52544;48.116;11.660;2023-01-20T15:48:36;23.45;;;11.35;;
65799;SDS011;52544;48.116;11.660;2023-01-20T15:51:02;25.08;;;11.85;;
65799;SDS011;52544;48.116;11.660;2023-01-20T15:53:27;28.35;;;13.00;;
65799;SDS011;52544;48.116;11.660;2023-01-20T15:55:53;28.50;;;12.52;;
65799;SDS011;52544;48.116;11.660;2023-01-20T15:58:23;31.98;;;13.77;;
65799;SDS011;52544;48.116;11.660;2023-01-20T16:00:50;27.67;;;13.07;;
65799;SDS011;52544;48.116;11.660;2023-01-20T16:03:16;29.67;;;14.55;;
65799;SDS011;52544;48.116;11.660;2023-01-20T16:05:42;30.80;;;13.88;;
65799;SDS011;52544;48.116;11.660;2023-01-20T16:08:13;29.85;;;13.27;;
65799;SDS011;52544;48.116;11.660;2023-01-20T16:10:39;28.48;;;13.52;;
65799;SDS011;52544;48.116;11.660;2023-01-20T16:13:06;36.63;;;15.02;;
65799;SDS011;52544;48.116;11.660;2023-01-20T16:15:34;32.50;;;14.90;;
65799;SDS011;52544;48.116;11.660;2023-01-20T16:18:01;41.55;;;18.20;;
65799;SDS011;52544;48.116;11.660;2023-01-20T16:20:26;112.45;;;43.25;;
65799;SDS011;52544;48.116;11.660;2023-01-20T16:22:51;72.43;;;28.05;;
65799;SDS011;52544;48.116;11.660;2023-01-20T16:25:17;39.58;;;17.52;;
65799;SDS011;52544;48.116;11.660;2023-01-20T16:27:43;35.30;;;16.25;;
65799;SDS011;52544;48.116;11.660;2023-01-20T16:30:11;32.05;;;15.27;;
65799;SDS011;52544;48.116;11.660;2023-01-20T16:32:38;32.63;;;15.10;;
65799;SDS011;52544;48.116;11.660;2023-01-20T16:35:04;40.22;;;20.20;;